Wetterdaten: Dienstag, 17.07.2018
Datum Zeit Temp. A. Temp. A. min Temp. A. max Feuchte A. Bod.Feucht 4 Luftdruck Regen Wind Richtung Richtung Sonnenschein ET Solar Taupunkt Windchill Windben Empfang
17.07.2018 00:00 16,4 C 16,4 C 16,8 C 88 % 0 cb 1013,0 hPa 0,0 l/m 0,0 km/h (0 Bft) N 0 0 min 0,025 mm 0 W/m 14,4 C 16,4 C 0,0 km/h (0 Bft) 100,00 %
17.07.2018 00:10 16,4 C 16,4 C 16,4 C 89 % 0 cb 1013,0 hPa 0,0 l/m 1,6 km/h (1 Bft) NO 45 0 min 0,000 mm 0 W/m 14,6 C 16,4 C 3,2 km/h (1 Bft) 100,00 %
17.07.2018 00:20 16,5 C 16,4 C 16,5 C 89 % 0 cb 1013,0 hPa 0,0 l/m 1,6 km/h (1 Bft) NO 45 0 min 0,000 mm 0 W/m 14,7 C 16,5 C 4,8 km/h (1 Bft) 100,00 %
17.07.2018 00:30 16,6 C 16,5 C 16,6 C 88 % 0 cb 1013,1 hPa 0,0 l/m 1,6 km/h (1 Bft) NO 45 0 min 0,000 mm 0 W/m 14,6 C 16,6 C 4,8 km/h (1 Bft) 100,00 %
17.07.2018 00:40 16,4 C 16,4 C 16,6 C 88 % 0 cb 1013,1 hPa 0,0 l/m 0,0 km/h (0 Bft) NO 45 0 min 0,000 mm 0 W/m 14,4 C 16,4 C 3,2 km/h (1 Bft) 100,00 %
17.07.2018 00:50 16,2 C 16,2 C 16,4 C 88 % 0 cb 1013,2 hPa 0,0 l/m 0,0 km/h (0 Bft) NO 45 0 min 0,000 mm 0 W/m 14,2 C 16,2 C 3,2 km/h (1 Bft) 100,00 %
17.07.2018 01:00 15,9 C 15,9 C 16,2 C 88 % 0 cb 1013,2 hPa 0,0 l/m 0,0 km/h (0 Bft) NO 45 0 min 0,000 mm 0 W/m 13,9 C 15,9 C 1,6 km/h (1 Bft) 100,00 %
17.07.2018 01:10 15,7 C 15,7 C 15,9 C 87 % 0 cb 1013,2 hPa 0,0 l/m 0,0 km/h (0 Bft) NO 45 0 min 0,000 mm 0 W/m 13,5 C 15,7 C 3,2 km/h (1 Bft) 98,25 %
17.07.2018 01:20 15,4 C 15,4 C 15,7 C 87 % 0 cb 1013,1 hPa 0,0 l/m 0,0 km/h (0 Bft) NO 45 0 min 0,000 mm 0 W/m 13,2 C 15,4 C 1,6 km/h (1 Bft) 100,00 %
17.07.2018 01:30 15,2 C 15,2 C 15,4 C 88 % 0 cb 1013,2 hPa 0,0 l/m 0,0 km/h (0 Bft) NO 45 0 min 0,000 mm 0 W/m 13,2 C 15,2 C 1,6 km/h (1 Bft) 100,00 %
17.07.2018 01:40 15,1 C 15,1 C 15,2 C 89 % 0 cb 1013,2 hPa 0,0 l/m 0,0 km/h (0 Bft) N 0 0 min 0,000 mm 0 W/m 13,3 C 15,1 C 0,0 km/h (0 Bft) 100,00 %
17.07.2018 01:50 15,1 C 15,0 C 15,1 C 90 % 0 cb 1013,1 hPa 0,0 l/m 0,0 km/h (0 Bft) N 0 0 min 0,000 mm 0 W/m 13,5 C 15,1 C 0,0 km/h (0 Bft) 100,00 %
17.07.2018 02:00 14,9 C 14,9 C 15,1 C 89 % 0 cb 1013,1 hPa 0,0 l/m 0,0 km/h (0 Bft) NO 45 0 min 0,000 mm 0 W/m 13,1 C 14,9 C 3,2 km/h (1 Bft) 100,00 %
17.07.2018 02:10 14,9 C 14,9 C 15,0 C 89 % 0 cb 1013,1 hPa 0,0 l/m 0,0 km/h (0 Bft) N 0 0 min 0,000 mm 0 W/m 13,1 C 14,9 C 0,0 km/h (0 Bft) 100,00 %
17.07.2018 02:20 14,8 C 14,8 C 14,9 C 88 % 0 cb 1013,1 hPa 0,0 l/m 0,0 km/h (0 Bft) NO 45 0 min 0,000 mm 0 W/m 12,8 C 14,8 C 3,2 km/h (1 Bft) 100,00 %
17.07.2018 02:30 14,6 C 14,6 C 14,8 C 88 % 0 cb 1013,1 hPa 0,0 l/m 0,0 km/h (0 Bft) NO 45 0 min 0,000 mm 0 W/m 12,6 C 14,6 C 1,6 km/h (1 Bft) 100,00 %
17.07.2018 02:40 14,4 C 14,4 C 14,6 C 89 % 0 cb 1013,1 hPa 0,0 l/m 0,0 km/h (0 Bft) NO 45 0 min 0,000 mm 0 W/m 12,6 C 14,4 C 1,6 km/h (1 Bft) 100,00 %
17.07.2018 02:50 14,3 C 14,3 C 14,4 C 90 % 0 cb 1013,2 hPa 0,0 l/m 0,0 km/h (0 Bft) N 0 0 min 0,000 mm 0 W/m 12,7 C 14,3 C 0,0 km/h (0 Bft) 100,00 %
17.07.2018 03:00 14,2 C 14,2 C 14,3 C 90 % 0 cb 1013,2 hPa 0,0 l/m 0,0 km/h (0 Bft) N 0 0 min 0,000 mm 0 W/m 12,6 C 14,2 C 0,0 km/h (0 Bft) 100,00 %
17.07.2018 03:10 14,0 C 14,0 C 14,2 C 90 % 0 cb 1013,2 hPa 0,0 l/m 0,0 km/h (0 Bft) N 0 0 min 0,000 mm 0 W/m 12,4 C 14,0 C 0,0 km/h (0 Bft) 100,00 %
17.07.2018 03:20 14,0 C 14,0 C 14,1 C 91 % 0 cb 1013,1 hPa 0,0 l/m 0,0 km/h (0 Bft) N 0 0 min 0,000 mm 0 W/m 12,6 C 14,0 C 0,0 km/h (0 Bft) 100,00 %
17.07.2018 03:30 14,0 C 14,0 C 14,1 C 91 % 0 cb 1013,1 hPa 0,0 l/m 0,0 km/h (0 Bft) N 0 0 min 0,000 mm 0 W/m 12,6 C 14,0 C 0,0 km/h (0 Bft) 100,00 %
17.07.2018 03:40 13,8 C 13,8 C 14,0 C 90 % 0 cb 1013,1 hPa 0,0 l/m 0,0 km/h (0 Bft) N 0 0 min 0,000 mm 0 W/m 12,2 C 13,8 C 0,0 km/h (0 Bft) 100,00 %
17.07.2018 03:50 13,7 C 13,7 C 13,8 C 91 % 0 cb 1013,1 hPa 0,0 l/m 0,0 km/h (0 Bft) NO 45 0 min 0,000 mm 0 W/m 12,3 C 13,7 C 1,6 km/h (1 Bft) 100,00 %
17.07.2018 04:00 13,6 C 13,6 C 13,7 C 91 % 0 cb 1013,1 hPa 0,0 l/m 0,0 km/h (0 Bft) NO 45 0 min 0,000 mm 0 W/m 12,2 C 13,6 C 1,6 km/h (1 Bft) 100,00 %
17.07.2018 04:10 13,5 C 13,5 C 13,6 C 92 % 0 cb 1013,2 hPa 0,0 l/m 0,0 km/h (0 Bft) N 0 0 min 0,000 mm 0 W/m 12,2 C 13,5 C 0,0 km/h (0 Bft) 100,00 %
17.07.2018 04:20 13,4 C 13,4 C 13,5 C 92 % 0 cb 1013,2 hPa 0,0 l/m 0,0 km/h (0 Bft) N 0 0 min 0,000 mm 0 W/m 12,1 C 13,4 C 0,0 km/h (0 Bft) 100,00 %
17.07.2018 04:30 13,4 C 13,4 C 13,4 C 92 % 0 cb 1013,2 hPa 0,0 l/m 0,0 km/h (0 Bft) N 0 0 min 0,000 mm 0 W/m 12,1 C 13,4 C 0,0 km/h (0 Bft) 100,00 %
17.07.2018 04:40 13,7 C 13,4 C 13,7 C 93 % 0 cb 1013,2 hPa 0,0 l/m 1,6 km/h (1 Bft) NO 45 0 min 0,000 mm 0 W/m 12,6 C 13,7 C 3,2 km/h (1 Bft) 100,00 %
17.07.2018 04:50 13,7 C 13,7 C 13,7 C 91 % 0 cb 1013,2 hPa 0,0 l/m 0,0 km/h (0 Bft) NO 45 0 min 0,000 mm 0 W/m 12,3 C 13,7 C 3,2 km/h (1 Bft) 100,00 %
17.07.2018 05:00 13,5 C 13,5 C 13,7 C 91 % 0 cb 1013,1 hPa 0,0 l/m 0,0 km/h (0 Bft) N 0 0 min 0,000 mm 0 W/m 12,1 C 13,5 C 0,0 km/h (0 Bft) 100,00 %
17.07.2018 05:10 13,4 C 13,4 C 13,5 C 91 % 0 cb 1013,2 hPa 0,0 l/m 0,0 km/h (0 Bft) NO 45 0 min 0,000 mm 0 W/m 12,0 C 13,4 C 1,6 km/h (1 Bft) 100,00 %
17.07.2018 05:20 13,4 C 13,4 C 13,4 C 90 % 0 cb 1013,3 hPa 0,0 l/m 0,0 km/h (0 Bft) NO 45 0 min 0,000 mm 0 W/m 11,8 C 13,4 C 1,6 km/h (1 Bft) 99,56 %
17.07.2018 05:30 13,4 C 13,4 C 13,4 C 90 % 0 cb 1013,3 hPa 0,0 l/m 0,0 km/h (0 Bft) NO 45 0 min 0,000 mm 0 W/m 11,8 C 13,4 C 1,6 km/h (1 Bft) 100,00 %
17.07.2018 05:40 13,3 C 13,2 C 13,4 C 89 % 0 cb 1013,3 hPa 0,0 l/m 0,0 km/h (0 Bft) NO 45 0 min 0,000 mm 0 W/m 11,5 C 13,3 C 1,6 km/h (1 Bft) 100,00 %
17.07.2018 05:50 13,1 C 13,1 C 13,3 C 90 % 0 cb 1013,4 hPa 0,0 l/m 0,0 km/h (0 Bft) NO 45 0 min 0,000 mm 5 W/m 11,5 C 13,1 C 1,6 km/h (1 Bft) 100,00 %
17.07.2018 06:00 13,0 C 13,0 C 13,1 C 90 % 0 cb 1013,5 hPa 0,0 l/m 0,0 km/h (0 Bft) NO 45 0 min 0,000 mm 11 W/m 11,4 C 13,0 C 1,6 km/h (1 Bft) 100,00 %
17.07.2018 06:10 12,9 C 12,9 C 13,0 C 91 % 0 cb 1013,5 hPa 0,0 l/m 0,0 km/h (0 Bft) N 0 0 min 0,000 mm 14 W/m 11,5 C 12,9 C 0,0 km/h (0 Bft) 100,00 %
17.07.2018 06:20 12,9 C 12,9 C 12,9 C 92 % 0 cb 1013,4 hPa 0,0 l/m 0,0 km/h (0 Bft) N 0 0 min 0,000 mm 18 W/m 11,6 C 12,9 C 0,0 km/h (0 Bft) 100,00 %
17.07.2018 06:30 13,0 C 12,9 C 13,0 C 92 % 0 cb 1013,6 hPa 0,0 l/m 0,0 km/h (0 Bft) N 0 0 min 0,000 mm 21 W/m 11,7 C 13,0 C 0,0 km/h (0 Bft) 100,00 %
17.07.2018 06:40 13,0 C 13,0 C 13,0 C 92 % 0 cb 1013,6 hPa 0,0 l/m 0,0 km/h (0 Bft) N 0 0 min 0,000 mm 25 W/m 11,7 C 13,0 C 0,0 km/h (0 Bft) 100,00 %
17.07.2018 06:50 13,1 C 13,0 C 13,1 C 93 % 0 cb 1013,6 hPa 0,0 l/m 0,0 km/h (0 Bft) N 0 0 min 0,000 mm 28 W/m 12,0 C 13,1 C 0,0 km/h (0 Bft) 97,81 %
17.07.2018 07:00 13,3 C 13,1 C 13,3 C 93 % 0 cb 1013,8 hPa 0,0 l/m 0,0 km/h (0 Bft) N 0 0 min 0,025 mm 72 W/m 12,2 C 13,3 C 0,0 km/h (0 Bft) 100,00 %
17.07.2018 07:10 13,7 C 13,3 C 13,7 C 93 % 0 cb 1013,9 hPa 0,0 l/m 0,0 km/h (0 Bft) N 0 0 min 0,000 mm 118 W/m 12,6 C 13,7 C 0,0 km/h (0 Bft) 95,18 %
17.07.2018 07:20 14,0 C 13,7 C 14,0 C 92 % 0 cb 1014,0 hPa 0,0 l/m 0,0 km/h (0 Bft) N 0 0 min 0,000 mm 148 W/m 12,7 C 14,0 C 0,0 km/h (0 Bft) 100,00 %
17.07.2018 07:30 14,9 C 14,0 C 14,9 C 91 % 0 cb 1014,0 hPa 0,0 l/m 0,0 km/h (0 Bft) N 0 10 min 0,000 mm 172 W/m 13,4 C 14,9 C 0,0 km/h (0 Bft) 99,56 %
17.07.2018 07:40 16,1 C 14,9 C 16,1 C 89 % 0 cb 1014,1 hPa 0,0 l/m 0,0 km/h (0 Bft) N 0 10 min 0,000 mm 211 W/m 14,3 C 16,1 C 0,0 km/h (0 Bft) 100,00 %
17.07.2018 07:50 16,9 C 16,1 C 16,9 C 85 % 0 cb 1014,1 hPa 0,0 l/m 0,0 km/h (0 Bft) NO 45 10 min 0,000 mm 241 W/m 14,4 C 16,9 C 1,6 km/h (1 Bft) 100,00 %
17.07.2018 08:00 17,9 C 17,0 C 17,9 C 83 % 0 cb 1014,1 hPa 0,0 l/m 0,0 km/h (0 Bft) N 0 10 min 0,102 mm 265 W/m 15,0 C 17,9 C 0,0 km/h (0 Bft) 100,00 %
17.07.2018 08:10 18,8 C 17,9 C 18,8 C 80 % 0 cb 1014,1 hPa 0,0 l/m 0,0 km/h (0 Bft) N 0 10 min 0,000 mm 330 W/m 15,3 C 18,8 C 0,0 km/h (0 Bft) 100,00 %
17.07.2018 08:20 19,4 C 18,8 C 19,4 C 77 % 0 cb 1014,2 hPa 0,0 l/m 0,0 km/h (0 Bft) N 0 10 min 0,000 mm 346 W/m 15,3 C 19,4 C 0,0 km/h (0 Bft) 100,00 %
17.07.2018 08:30 20,1 C 19,4 C 20,1 C 74 % 0 cb 1014,2 hPa 0,0 l/m 0,0 km/h (0 Bft) N 0 10 min 0,000 mm 359 W/m 15,3 C 20,1 C 0,0 km/h (0 Bft) 100,00 %
17.07.2018 08:40 20,6 C 20,1 C 20,6 C 72 % 0 cb 1014,1 hPa 0,0 l/m 0,0 km/h (0 Bft) N 0 10 min 0,000 mm 364 W/m 15,4 C 20,6 C 0,0 km/h (0 Bft) 100,00 %
17.07.2018 08:50 20,7 C 20,6 C 20,7 C 72 % 0 cb 1014,1 hPa 0,0 l/m 0,0 km/h (0 Bft) N 0 10 min 0,000 mm 380 W/m 15,5 C 20,7 C 0,0 km/h (0 Bft) 100,00 %
17.07.2018 09:00 20,9 C 20,7 C 20,9 C 69 % 0 cb 1014,1 hPa 0,0 l/m 0,0 km/h (0 Bft) N 0 10 min 0,203 mm 403 W/m 15,0 C 20,9 C 0,0 km/h (0 Bft) 100,00 %
17.07.2018 09:10 21,4 C 20,9 C 21,4 C 73 % 0 cb 1014,2 hPa 0,0 l/m 0,0 km/h (0 Bft) O-NO 67 10 min 0,000 mm 381 W/m 16,4 C 21,4 C 4,8 km/h (1 Bft) 100,00 %
17.07.2018 09:20 21,6 C 21,4 C 21,6 C 72 % 0 cb 1014,3 hPa 0,0 l/m 1,6 km/h (1 Bft) O-NO 67 10 min 0,000 mm 454 W/m 16,3 C 21,6 C 3,2 km/h (1 Bft) 100,00 %
17.07.2018 09:30 21,8 C 21,6 C 21,8 C 73 % 0 cb 1014,3 hPa 0,0 l/m 1,6 km/h (1 Bft) O-NO 67 10 min 0,000 mm 485 W/m 16,7 C 21,8 C 4,8 km/h (1 Bft) 100,00 %
17.07.2018 09:40 22,4 C 21,8 C 22,4 C 70 % 0 cb 1014,3 hPa 0,0 l/m 1,6 km/h (1 Bft) O-NO 67 10 min 0,000 mm 533 W/m 16,7 C 22,4 C 4,8 km/h (1 Bft) 100,00 %
17.07.2018 09:50 22,6 C 22,4 C 22,6 C 70 % 0 cb 1014,3 hPa 0,0 l/m 1,6 km/h (1 Bft) O 90 10 min 0,000 mm 515 W/m 16,8 C 22,6 C 4,8 km/h (1 Bft) 100,00 %
17.07.2018 10:00 22,8 C 22,7 C 22,8 C 71 % 0 cb 1014,4 hPa 0,0 l/m 1,6 km/h (1 Bft) O 90 10 min 0,254 mm 605 W/m 17,3 C 22,8 C 4,8 km/h (1 Bft) 100,00 %
17.07.2018 10:10 23,0 C 22,8 C 23,0 C 71 % 0 cb 1014,3 hPa 0,0 l/m 3,2 km/h (1 Bft) S-SO 157 10 min 0,000 mm 552 W/m 17,4 C 23,0 C 8,0 km/h (2 Bft) 100,00 %
17.07.2018 10:20 23,6 C 23,0 C 23,6 C 70 % 0 cb 1014,4 hPa 0,0 l/m 1,6 km/h (1 Bft) S-SW 202 10 min 0,000 mm 626 W/m 17,8 C 23,6 C 6,4 km/h (2 Bft) 99,56 %
17.07.2018 10:30 24,3 C 23,6 C 24,3 C 68 % 0 cb 1014,5 hPa 0,0 l/m 1,6 km/h (1 Bft) S 180 10 min 0,000 mm 650 W/m 18,0 C 24,3 C 6,4 km/h (2 Bft) 100,00 %
17.07.2018 10:40 25,1 C 24,3 C 25,1 C 64 % 0 cb 1014,4 hPa 0,0 l/m 3,2 km/h (1 Bft) S-SW 202 10 min 0,000 mm 679 W/m 17,8 C 25,1 C 9,7 km/h (2 Bft) 100,00 %
17.07.2018 10:50 25,4 C 25,1 C 25,4 C 58 % 0 cb 1014,4 hPa 0,0 l/m 3,2 km/h (1 Bft) S-SW 202 10 min 0,000 mm 677 W/m 16,5 C 25,4 C 8,0 km/h (2 Bft) 100,00 %
17.07.2018 11:00 25,7 C 25,4 C 25,7 C 59 % 0 cb 1014,5 hPa 0,0 l/m 3,2 km/h (1 Bft) S 180 10 min 0,381 mm 680 W/m 17,1 C 25,7 C 9,7 km/h (2 Bft) 98,68 %
17.07.2018 11:10 26,1 C 25,7 C 26,1 C 58 % 0 cb 1014,5 hPa 0,0 l/m 4,8 km/h (1 Bft) S-SW 202 10 min 0,000 mm 712 W/m 17,2 C 26,1 C 9,7 km/h (2 Bft) 100,00 %
17.07.2018 11:20 26,3 C 26,1 C 26,3 C 59 % 0 cb 1014,6 hPa 0,0 l/m 4,8 km/h (1 Bft) W 270 10 min 0,000 mm 754 W/m 17,6 C 26,3 C 12,9 km/h (3 Bft) 100,00 %
17.07.2018 11:30 26,6 C 26,3 C 26,6 C 58 % 0 cb 1014,6 hPa 0,0 l/m 4,8 km/h (1 Bft) W-SW 247 10 min 0,000 mm 766 W/m 17,6 C 26,6 C 9,7 km/h (2 Bft) 100,00 %
17.07.2018 11:40 26,9 C 26,6 C 26,9 C 58 % 0 cb 1014,6 hPa 0,0 l/m 4,8 km/h (1 Bft) W-SW 247 10 min 0,000 mm 770 W/m 17,9 C 26,9 C 12,9 km/h (3 Bft) 100,00 %
17.07.2018 11:50 27,1 C 26,9 C 27,2 C 53 % 0 cb 1014,7 hPa 0,0 l/m 6,4 km/h (2 Bft) W 270 10 min 0,000 mm 786 W/m 16,7 C 27,1 C 17,7 km/h (3 Bft) 100,00 %
17.07.2018 12:00 27,3 C 27,1 C 27,3 C 52 % 0 cb 1014,8 hPa 0,0 l/m 4,8 km/h (1 Bft) W 270 10 min 0,508 mm 802 W/m 16,6 C 27,3 C 12,9 km/h (3 Bft) 100,00 %
17.07.2018 12:10 27,5 C 27,3 C 27,5 C 49 % 0 cb 1014,7 hPa 0,0 l/m 4,8 km/h (1 Bft) W-SW 247 10 min 0,000 mm 810 W/m 15,8 C 27,5 C 22,5 km/h (4 Bft) 100,00 %
17.07.2018 12:20 27,3 C 27,3 C 27,5 C 53 % 0 cb 1014,8 hPa 0,0 l/m 6,4 km/h (2 Bft) W 270 10 min 0,000 mm 821 W/m 16,9 C 27,3 C 16,1 km/h (3 Bft) 100,00 %
17.07.2018 12:30 27,6 C 27,3 C 27,6 C 49 % 0 cb 1014,7 hPa 0,0 l/m 6,4 km/h (2 Bft) W 270 10 min 0,000 mm 833 W/m 15,9 C 27,6 C 14,5 km/h (3 Bft) 100,00 %
17.07.2018 12:40 27,8 C 27,6 C 27,8 C 49 % 0 cb 1014,8 hPa 0,0 l/m 6,4 km/h (2 Bft) W 270 10 min 0,000 mm 840 W/m 16,1 C 27,8 C 14,5 km/h (3 Bft) 100,00 %
17.07.2018 12:50 27,7 C 27,7 C 27,8 C 37 % 0 cb 1014,8 hPa 0,0 l/m 6,4 km/h (2 Bft) W 270 10 min 0,000 mm 847 W/m 11,7 C 27,7 C 20,9 km/h (4 Bft) 100,00 %
17.07.2018 13:00 27,8 C 27,7 C 27,8 C 35 % 0 cb 1014,7 hPa 0,0 l/m 4,8 km/h (1 Bft) W-NW 292 10 min 0,584 mm 856 W/m 10,9 C 27,8 C 16,1 km/h (3 Bft) 100,00 %
17.07.2018 13:10 28,1 C 27,8 C 28,1 C 37 % 0 cb 1014,6 hPa 0,0 l/m 6,4 km/h (2 Bft) W-SW 247 10 min 0,000 mm 875 W/m 12,0 C 28,1 C 19,3 km/h (3 Bft) 100,00 %
17.07.2018 13:20 28,3 C 28,1 C 28,3 C 37 % 0 cb 1014,6 hPa 0,0 l/m 8,0 km/h (2 Bft) W 270 10 min 0,000 mm 874 W/m 12,2 C 28,3 C 17,7 km/h (3 Bft) 100,00 %
17.07.2018 13:30 28,6 C 28,3 C 28,6 C 36 % 0 cb 1014,5 hPa 0,0 l/m 4,8 km/h (1 Bft) W-NW 292 10 min 0,000 mm 872 W/m 12,0 C 28,6 C 14,5 km/h (3 Bft) 100,00 %
17.07.2018 13:40 28,4 C 28,4 C 28,6 C 39 % 0 cb 1014,5 hPa 0,0 l/m 8,0 km/h (2 Bft) W 270 10 min 0,000 mm 886 W/m 13,1 C 28,4 C 19,3 km/h (3 Bft) 100,00 %
17.07.2018 13:50 28,3 C 28,3 C 28,6 C 36 % 0 cb 1014,5 hPa 0,0 l/m 8,0 km/h (2 Bft) W-NW 292 10 min 0,000 mm 905 W/m 11,8 C 28,3 C 19,3 km/h (3 Bft) 98,25 %
17.07.2018 14:00 27,9 C 27,9 C 28,3 C 37 % 0 cb 1014,4 hPa 0,0 l/m 4,8 km/h (1 Bft) N-NW 337 10 min 0,635 mm 912 W/m 11,8 C 27,9 C 14,5 km/h (3 Bft) 100,00 %
17.07.2018 14:10 28,5 C 27,9 C 28,5 C 37 % 0 cb 1014,5 hPa 0,0 l/m 6,4 km/h (2 Bft) W 270 10 min 0,000 mm 907 W/m 12,4 C 28,5 C 16,1 km/h (3 Bft) 100,00 %
17.07.2018 14:20 28,4 C 28,4 C 28,6 C 37 % 0 cb 1014,4 hPa 0,0 l/m 4,8 km/h (1 Bft) W-NW 292 10 min 0,000 mm 912 W/m 12,3 C 28,4 C 17,7 km/h (3 Bft) 100,00 %
17.07.2018 14:30 28,2 C 28,2 C 28,4 C 37 % 0 cb 1014,3 hPa 0,0 l/m 4,8 km/h (1 Bft) W 270 10 min 0,000 mm 251 W/m 12,1 C 28,2 C 12,9 km/h (3 Bft) 100,00 %
17.07.2018 14:40 27,6 C 27,6 C 28,2 C 39 % 0 cb 1014,4 hPa 0,0 l/m 8,0 km/h (2 Bft) W 270 10 min 0,000 mm 192 W/m 12,4 C 27,6 C 17,7 km/h (3 Bft) 100,00 %
17.07.2018 14:50 26,9 C 26,9 C 27,6 C 43 % 0 cb 1014,5 hPa 0,0 l/m 8,0 km/h (2 Bft) W 270 10 min 0,000 mm 295 W/m 13,2 C 26,9 C 19,3 km/h (3 Bft) 99,56 %
17.07.2018 15:00 26,8 C 26,8 C 26,9 C 44 % 0 cb 1014,5 hPa 0,0 l/m 6,4 km/h (2 Bft) W 270 10 min 0,356 mm 366 W/m 13,5 C 26,8 C 12,9 km/h (3 Bft) 98,25 %
17.07.2018 15:10 27,2 C 26,8 C 27,2 C 42 % 0 cb 1014,5 hPa 0,0 l/m 6,4 km/h (2 Bft) W 270 10 min 0,000 mm 415 W/m 13,2 C 27,2 C 19,3 km/h (3 Bft) 100,00 %
17.07.2018 15:20 27,6 C 27,2 C 27,6 C 42 % 0 cb 1014,5 hPa 0,0 l/m 6,4 km/h (2 Bft) W 270 10 min 0,000 mm 882 W/m 13,5 C 27,6 C 20,9 km/h (4 Bft) 100,00 %
17.07.2018 15:30 28,2 C 27,6 C 28,2 C 45 % 0 cb 1014,4 hPa 0,0 l/m 8,0 km/h (2 Bft) W 270 10 min 0,000 mm 877 W/m 15,1 C 28,2 C 20,9 km/h (4 Bft) 98,25 %
17.07.2018 15:40 28,4 C 28,3 C 28,5 C 39 % 0 cb 1014,5 hPa 0,0 l/m 9,7 km/h (2 Bft) W 270 10 min 0,000 mm 846 W/m 13,1 C 28,4 C 24,1 km/h (4 Bft) 100,00 %
17.07.2018 15:50 28,2 C 28,2 C 28,4 C 38 % 0 cb 1014,6 hPa 0,0 l/m 8,0 km/h (2 Bft) W-NW 292 10 min 0,000 mm 791 W/m 12,5 C 28,2 C 20,9 km/h (4 Bft) 100,00 %
17.07.2018 16:00 27,9 C 27,9 C 28,2 C 39 % 0 cb 1014,5 hPa 0,0 l/m 6,4 km/h (2 Bft) W-NW 292 10 min 0,508 mm 772 W/m 12,6 C 27,9 C 16,1 km/h (3 Bft) 100,00 %
17.07.2018 16:10 27,2 C 27,2 C 27,9 C 41 % 0 cb 1014,6 hPa 0,0 l/m 4,8 km/h (1 Bft) W 270 10 min 0,000 mm 188 W/m 12,8 C 27,2 C 19,3 km/h (3 Bft) 100,00 %
17.07.2018 16:20 26,8 C 26,7 C 27,2 C 42 % 0 cb 1014,6 hPa 0,0 l/m 8,0 km/h (2 Bft) W 270 10 min 0,000 mm 812 W/m 12,8 C 26,8 C 22,5 km/h (4 Bft) 100,00 %
17.07.2018 16:30 27,8 C 26,8 C 27,8 C 42 % 0 cb 1014,4 hPa 0,0 l/m 4,8 km/h (1 Bft) SW 225 10 min 0,000 mm 807 W/m 13,7 C 27,8 C 12,9 km/h (3 Bft) 100,00 %
17.07.2018 16:40 28,7 C 27,8 C 28,7 C 39 % 0 cb 1014,4 hPa 0,0 l/m 6,4 km/h (2 Bft) W-NW 292 10 min 0,000 mm 756 W/m 13,4 C 28,7 C 20,9 km/h (4 Bft) 100,00 %
17.07.2018 16:50 28,8 C 28,7 C 28,8 C 38 % 0 cb 1014,4 hPa 0,0 l/m 6,4 km/h (2 Bft) N-NW 337 10 min 0,000 mm 712 W/m 13,0 C 28,8 C 16,1 km/h (3 Bft) 100,00 %
17.07.2018 17:00 28,3 C 28,3 C 28,8 C 40 % 0 cb 1014,5 hPa 0,0 l/m 6,4 km/h (2 Bft) W 270 10 min 0,381 mm 675 W/m 13,4 C 28,3 C 16,1 km/h (3 Bft) 100,00 %
17.07.2018 17:10 27,8 C 27,7 C 28,3 C 44 % 0 cb 1014,5 hPa 0,0 l/m 8,0 km/h (2 Bft) W-NW 292 10 min 0,000 mm 701 W/m 14,4 C 27,8 C 22,5 km/h (4 Bft) 100,00 %
17.07.2018 17:20 28,0 C 27,8 C 28,0 C 41 % 0 cb 1014,5 hPa 0,0 l/m 6,4 km/h (2 Bft) N-NW 337 10 min 0,000 mm 652 W/m 13,5 C 28,0 C 16,1 km/h (3 Bft) 100,00 %
17.07.2018 17:30 27,7 C 27,7 C 28,0 C 42 % 0 cb 1014,5 hPa 0,0 l/m 6,4 km/h (2 Bft) W 270 10 min 0,000 mm 459 W/m 13,6 C 27,7 C 14,5 km/h (3 Bft) 100,00 %
17.07.2018 17:40 27,5 C 27,4 C 27,7 C 41 % 0 cb 1014,4 hPa 0,0 l/m 6,4 km/h (2 Bft) W 270 10 min 0,000 mm 568 W/m 13,1 C 27,5 C 20,9 km/h (4 Bft) 100,00 %
17.07.2018 17:50 28,0 C 27,5 C 28,0 C 43 % 0 cb 1014,5 hPa 0,0 l/m 4,8 km/h (1 Bft) NW 315 10 min 0,000 mm 552 W/m 14,2 C 28,0 C 14,5 km/h (3 Bft) 100,00 %
17.07.2018 18:00 28,4 C 28,0 C 28,4 C 42 % 0 cb 1014,3 hPa 0,0 l/m 4,8 km/h (1 Bft) NW 315 10 min 0,356 mm 538 W/m 14,2 C 28,4 C 11,3 km/h (2 Bft) 100,00 %
17.07.2018 18:10 28,5 C 28,4 C 28,6 C 40 % 0 cb 1014,4 hPa 0,0 l/m 6,4 km/h (2 Bft) W 270 10 min 0,000 mm 503 W/m 13,6 C 28,5 C 17,7 km/h (3 Bft) 100,00 %
17.07.2018 18:20 28,0 C 28,0 C 28,5 C 40 % 0 cb 1014,4 hPa 0,0 l/m 8,0 km/h (2 Bft) W-NW 292 10 min 0,000 mm 448 W/m 13,1 C 28,0 C 22,5 km/h (4 Bft) 100,00 %
17.07.2018 18:30 27,7 C 27,7 C 28,0 C 42 % 0 cb 1014,4 hPa 0,0 l/m 6,4 km/h (2 Bft) W-NW 292 10 min 0,000 mm 424 W/m 13,6 C 27,7 C 16,1 km/h (3 Bft) 100,00 %
17.07.2018 18:40 27,4 C 27,4 C 27,7 C 43 % 0 cb 1014,4 hPa 0,0 l/m 6,4 km/h (2 Bft) W 270 10 min 0,000 mm 378 W/m 13,7 C 27,4 C 16,1 km/h (3 Bft) 100,00 %
17.07.2018 18:50 27,3 C 27,3 C 27,4 C 43 % 0 cb 1014,4 hPa 0,0 l/m 4,8 km/h (1 Bft) W-NW 292 10 min 0,000 mm 343 W/m 13,6 C 27,3 C 14,5 km/h (3 Bft) 100,00 %
17.07.2018 19:00 27,3 C 27,3 C 27,4 C 44 % 0 cb 1014,4 hPa 0,0 l/m 4,8 km/h (1 Bft) W 270 10 min 0,305 mm 341 W/m 14,0 C 27,3 C 12,9 km/h (3 Bft) 100,00 %
17.07.2018 19:10 27,2 C 27,2 C 27,3 C 43 % 0 cb 1014,5 hPa 0,0 l/m 6,4 km/h (2 Bft) W 270 10 min 0,000 mm 265 W/m 13,5 C 27,2 C 16,1 km/h (3 Bft) 100,00 %
17.07.2018 19:20 27,2 C 27,2 C 27,2 C 44 % 0 cb 1014,6 hPa 0,0 l/m 3,2 km/h (1 Bft) W-NW 292 10 min 0,000 mm 241 W/m 13,9 C 27,2 C 11,3 km/h (2 Bft) 100,00 %
17.07.2018 19:30 27,3 C 27,2 C 27,3 C 45 % 0 cb 1014,5 hPa 0,0 l/m 4,8 km/h (1 Bft) W 270 10 min 0,000 mm 236 W/m 14,3 C 27,3 C 16,1 km/h (3 Bft) 99,56 %
17.07.2018 19:40 27,0 C 27,0 C 27,2 C 45 % 0 cb 1014,6 hPa 0,0 l/m 4,8 km/h (1 Bft) W-NW 292 10 min 0,000 mm 193 W/m 14,0 C 27,0 C 12,9 km/h (3 Bft) 100,00 %
17.07.2018 19:50 27,2 C 27,0 C 27,2 C 44 % 0 cb 1014,6 hPa 0,0 l/m 3,2 km/h (1 Bft) W 270 10 min 0,000 mm 188 W/m 13,9 C 27,2 C 11,3 km/h (2 Bft) 100,00 %
17.07.2018 20:00 26,8 C 26,8 C 27,2 C 45 % 0 cb 1014,7 hPa 0,0 l/m 3,2 km/h (1 Bft) W-NW 292 10 min 0,178 mm 153 W/m 13,9 C 26,8 C 14,5 km/h (3 Bft) 100,00 %
17.07.2018 20:10 26,5 C 26,5 C 26,8 C 45 % 0 cb 1014,7 hPa 0,0 l/m 4,8 km/h (1 Bft) W-NW 292 0 min 0,000 mm 146 W/m 13,6 C 26,5 C 12,9 km/h (3 Bft) 100,00 %
17.07.2018 20:20 26,2 C 26,2 C 26,5 C 45 % 0 cb 1014,8 hPa 0,0 l/m 4,8 km/h (1 Bft) W-NW 292 0 min 0,000 mm 111 W/m 13,3 C 26,2 C 12,9 km/h (3 Bft) 100,00 %
17.07.2018 20:30 25,6 C 25,6 C 26,2 C 48 % 0 cb 1014,9 hPa 0,0 l/m 3,2 km/h (1 Bft) W-NW 292 0 min 0,000 mm 72 W/m 13,8 C 25,6 C 11,3 km/h (2 Bft) 100,00 %
17.07.2018 20:40 25,3 C 25,3 C 25,6 C 48 % 0 cb 1015,0 hPa 0,0 l/m 3,2 km/h (1 Bft) W 270 0 min 0,000 mm 58 W/m 13,5 C 25,3 C 8,0 km/h (2 Bft) 99,12 %
17.07.2018 20:50 25,0 C 25,0 C 25,3 C 49 % 0 cb 1015,1 hPa 0,0 l/m 3,2 km/h (1 Bft) W-NW 292 0 min 0,000 mm 46 W/m 13,5 C 25,0 C 9,7 km/h (2 Bft) 100,00 %
17.07.2018 21:00 24,6 C 24,6 C 25,0 C 51 % 0 cb 1015,2 hPa 0,0 l/m 3,2 km/h (1 Bft) NW 315 0 min 0,076 mm 26 W/m 13,8 C 24,6 C 6,4 km/h (2 Bft) 100,00 %
17.07.2018 21:10 24,1 C 24,1 C 24,6 C 52 % 0 cb 1015,2 hPa 0,0 l/m 3,2 km/h (1 Bft) NW 315 0 min 0,000 mm 21 W/m 13,6 C 24,1 C 6,4 km/h (2 Bft) 99,12 %
17.07.2018 21:20 23,6 C 23,6 C 24,1 C 53 % 0 cb 1015,3 hPa 0,0 l/m 3,2 km/h (1 Bft) NW 315 0 min 0,000 mm 16 W/m 13,4 C 23,6 C 8,0 km/h (2 Bft) 100,00 %
17.07.2018 21:30 23,2 C 23,2 C 23,6 C 54 % 0 cb 1015,4 hPa 0,0 l/m 3,2 km/h (1 Bft) NW 315 0 min 0,000 mm 11 W/m 13,4 C 23,2 C 6,4 km/h (2 Bft) 100,00 %
17.07.2018 21:40 23,0 C 23,0 C 23,2 C 55 % 0 cb 1015,5 hPa 0,0 l/m 3,2 km/h (1 Bft) NW 315 0 min 0,000 mm 5 W/m 13,5 C 23,0 C 8,0 km/h (2 Bft) 100,00 %
17.07.2018 21:50 22,7 C 22,7 C 23,0 C 56 % 0 cb 1015,6 hPa 0,0 l/m 3,2 km/h (1 Bft) NW 315 0 min 0,000 mm 0 W/m 13,5 C 22,7 C 6,4 km/h (2 Bft) 100,00 %
17.07.2018 22:00 22,4 C 22,4 C 22,7 C 57 % 0 cb 1015,8 hPa 0,0 l/m 3,2 km/h (1 Bft) NW 315 0 min 0,025 mm 0 W/m 13,5 C 22,4 C 6,4 km/h (2 Bft) 100,00 %
17.07.2018 22:10 22,2 C 22,2 C 22,4 C 58 % 0 cb 1015,9 hPa 0,0 l/m 3,2 km/h (1 Bft) NW 315 0 min 0,000 mm 0 W/m 13,5 C 22,2 C 8,0 km/h (2 Bft) 100,00 %
17.07.2018 22:20 21,9 C 21,9 C 22,2 C 59 % 0 cb 1016,0 hPa 0,0 l/m 3,2 km/h (1 Bft) NW 315 0 min 0,000 mm 0 W/m 13,5 C 21,9 C 8,0 km/h (2 Bft) 99,56 %
17.07.2018 22:30 21,8 C 21,8 C 22,0 C 60 % 0 cb 1016,1 hPa 0,0 l/m 3,2 km/h (1 Bft) NW 315 0 min 0,000 mm 0 W/m 13,7 C 21,8 C 11,3 km/h (2 Bft) 100,00 %
17.07.2018 22:40 21,7 C 21,7 C 21,8 C 61 % 0 cb 1016,2 hPa 0,0 l/m 3,2 km/h (1 Bft) N-NW 337 0 min 0,000 mm 0 W/m 13,8 C 21,7 C 9,7 km/h (2 Bft) 100,00 %
17.07.2018 22:50 21,4 C 21,4 C 21,7 C 62 % 0 cb 1016,2 hPa 0,0 l/m 3,2 km/h (1 Bft) N-NW 337 0 min 0,000 mm 0 W/m 13,8 C 21,4 C 12,9 km/h (3 Bft) 99,12 %
17.07.2018 23:00 21,3 C 21,3 C 21,4 C 63 % 0 cb 1016,2 hPa 0,0 l/m 3,2 km/h (1 Bft) N-NW 337 0 min 0,051 mm 0 W/m 14,0 C 21,3 C 8,0 km/h (2 Bft) 100,00 %
17.07.2018 23:10 21,1 C 21,1 C 21,3 C 64 % 0 cb 1016,3 hPa 0,0 l/m 4,8 km/h (1 Bft) N-NW 337 0 min 0,000 mm 0 W/m 14,0 C 21,1 C 11,3 km/h (2 Bft) 100,00 %
17.07.2018 23:20 20,8 C 20,8 C 21,1 C 65 % 0 cb 1016,4 hPa 0,0 l/m 4,8 km/h (1 Bft) N-NW 337 0 min 0,000 mm 0 W/m 14,0 C 20,8 C 9,7 km/h (2 Bft) 100,00 %
17.07.2018 23:30 20,7 C 20,7 C 20,8 C 66 % 0 cb 1016,5 hPa 0,0 l/m 4,8 km/h (1 Bft) N-NW 337 0 min 0,000 mm 0 W/m 14,1 C 20,7 C 9,7 km/h (2 Bft) 98,68 %
17.07.2018 23:40 20,3 C 20,3 C 20,7 C 66 % 0 cb 1016,5 hPa 0,0 l/m 1,6 km/h (1 Bft) N-NO 22 0 min 0,000 mm 0 W/m 13,7 C 20,3 C 8,0 km/h (2 Bft) 100,00 %
17.07.2018 23:50 20,1 C 20,1 C 20,3 C 67 % 0 cb 1016,5 hPa 0,0 l/m 3,2 km/h (1 Bft) N 360 0 min 0,000 mm 0 W/m 13,8 C 20,1 C 6,4 km/h (2 Bft) 100,00 %
_ Min-Zeit 06:10 06:10 06:20 13:00 00:00 00:00 - 00:00 - - - - - 13:00 06:10 00:00 07:10
Minimum _ 12,9 C 12,9 C 12,9 C 35 % 0 cb 1013,0 hPa - 0,0 km/h (0 Bft) - - - - - 10,9 C 12,9 C 0,0 km/h (0 Bft) 95,18 %
_ Max-Zeit 16:50 16:50 16:50 04:40 00:00 23:30 00:00 15:40 - - 07:30 14:00 14:00 10:30 16:50 15:40 00:00
Maximum _ 28,8 C 28,7 C 28,8 C 93 % 0 cb 1016,5 hPa 0,0 l/m 9,7 km/h
W (2 Bft)
- - 10 min 0,635 mm 912 W/m 18,0 C 28,8 C 24,1 km/h
NW (4 Bft)
100,00 %
Durchschnitt _ 21,7 C 21,6 C 21,9 C 64 % 0 cb 1014,3 hPa #0,0 l/m 3,0 km/h (1 Bft) W - #12:40 h #4,953 mm 463 W/m 13,8 C 21,7 C 8,6 km/h (2 Bft) 99,85 %
Wetterstation Gdesweiler